sensor_id;sensor_type;location;lat;lon;timestamp;temperature;humidity
54946;DHT22;40846;44.788;20.486;2023-11-19T09:42:43;231.20;2048.00
54946;DHT22;40846;44.788;20.486;2023-11-19T09:45:14;231.20;2252.80
54946;DHT22;40846;44.788;20.486;2023-11-19T10:29:46;230.40;2252.80
54946;DHT22;40846;44.788;20.486;2023-11-19T10:32:13;205.70;2252.80
54946;DHT22;40846;44.788;20.486;2023-11-19T10:34:40;205.70;2252.80
54946;DHT22;40846;44.788;20.486;2023-11-19T10:37:07;205.60;2252.80
54946;DHT22;40846;44.788;20.486;2023-11-19T10:39:52;205.70;2252.80
54946;DHT22;40846;44.788;20.486;2023-11-19T10:43:01;230.40;2252.80
54946;DHT22;40846;44.788;20.486;2023-11-19T10:45:30;205.70;2227.20
54946;DHT22;40846;44.788;20.486;2023-11-19T10:47:57;205.70;2201.60
54946;DHT22;40846;44.788;20.486;2023-11-19T10:50:22;230.40;2201.60
54946;DHT22;40846;44.788;20.486;2023-11-19T10:52:52;230.50;2227.20
54946;DHT22;40846;44.788;20.486;2023-11-19T10:55:27;230.50;2201.60
54946;DHT22;40846;44.788;20.486;2023-11-19T10:58:00;230.50;2176.00
54946;DHT22;40846;44.788;20.486;2023-11-19T11:03:24;205.70;2227.20
54946;DHT22;40846;44.788;20.486;2023-11-19T11:05:52;230.40;2201.60
54946;DHT22;40846;44.788;20.486;2023-11-19T11:08:19;205.70;2252.80
54946;DHT22;40846;44.788;20.486;2023-11-19T11:15:50;230.90;2201.60
54946;DHT22;40846;44.788;20.486;2023-11-19T11:29:01;230.90;2150.40
54946;DHT22;40846;44.788;20.486;2023-11-19T11:31:50;230.90;2150.40
54946;DHT22;40846;44.788;20.486;2023-11-19T11:39:34;231.00;2150.40
54946;DHT22;40846;44.788;20.486;2023-11-19T11:45:01;231.10;2099.20
54946;DHT22;40846;44.788;20.486;2023-11-19T11:50:16;231.20;2124.80
54946;DHT22;40846;44.788;20.486;2023-11-19T11:58:25;231.00;2099.20
54946;DHT22;40846;44.788;20.486;2023-11-19T12:00:51;231.00;2099.20
54946;DHT22;40846;44.788;20.486;2023-11-19T12:03:20;231.10;2099.20
54946;DHT22;40846;44.788;20.486;2023-11-19T12:05:50;231.20;2099.20
54946;DHT22;40846;44.788;20.486;2023-11-19T12:08:25;231.10;2073.60
54946;DHT22;40846;44.788;20.486;2023-11-19T12:10:57;256.10;2048.00
54946;DHT22;40846;44.788;20.486;2023-11-19T12:13:47;231.30;2073.60
54946;DHT22;40846;44.788;20.486;2023-11-19T12:16:17;231.30;2048.00
54946;DHT22;40846;44.788;20.486;2023-11-19T12:18:43;231.10;2022.40
54946;DHT22;40846;44.788;20.486;2023-11-19T12:21:10;231.10;2048.00
54946;DHT22;40846;44.788;20.486;2023-11-19T12:23:44;231.00;2073.60
54946;DHT22;40846;44.788;20.486;2023-11-19T12:26:31;231.00;2048.00
54946;DHT22;40846;44.788;20.486;2023-11-19T12:28:58;231.00;2048.00
54946;DHT22;40846;44.788;20.486;2023-11-19T12:31:24;231.00;2073.60
54946;DHT22;40846;44.788;20.486;2023-11-19T12:33:51;230.90;2073.60
54946;DHT22;40846;44.788;20.486;2023-11-19T12:36:19;230.90;2099.20
54946;DHT22;40846;44.788;20.486;2023-11-19T12:38:46;231.00;2099.20
54946;DHT22;40846;44.788;20.486;2023-11-19T12:41:11;231.00;2099.20
54946;DHT22;40846;44.788;20.486;2023-11-19T12:43:38;231.00;2073.60
54946;DHT22;40846;44.788;20.486;2023-11-19T12:46:20;231.20;2073.60
54946;DHT22;40846;44.788;20.486;2023-11-19T12:48:50;231.20;2073.60
54946;DHT22;40846;44.788;20.486;2023-11-19T12:51:17;231.10;2048.00
54946;DHT22;40846;44.788;20.486;2023-11-19T12:53:52;231.30;2022.40
54946;DHT22;40846;44.788;20.486;2023-11-19T12:56:23;231.20;1996.80
54946;DHT22;40846;44.788;20.486;2023-11-19T12:58:50;230.90;2022.40
54946;DHT22;40846;44.788;20.486;2023-11-19T13:01:21;231.00;2048.00
54946;DHT22;40846;44.788;20.486;2023-11-19T13:03:47;230.90;2048.00
54946;DHT22;40846;44.788;20.486;2023-11-19T13:06:17;231.00;2048.00
54946;DHT22;40846;44.788;20.486;2023-11-19T13:08:44;231.00;2048.00
54946;DHT22;40846;44.788;20.486;2023-11-19T13:11:11;231.00;2073.60
54946;DHT22;40846;44.788;20.486;2023-11-19T13:13:56;231.10;2073.60
54946;DHT22;40846;44.788;20.486;2023-11-19T13:16:22;231.20;2048.00
54946;DHT22;40846;44.788;20.486;2023-11-19T13:18:48;231.20;2048.00
54946;DHT22;40846;44.788;20.486;2023-11-19T13:21:14;231.20;2048.00
54946;DHT22;40846;44.788;20.486;2023-11-19T13:23:40;231.20;2048.00
54946;DHT22;40846;44.788;20.486;2023-11-19T13:26:06;231.20;2048.00
54946;DHT22;40846;44.788;20.486;2023-11-19T13:28:31;231.20;2048.00
54946;DHT22;40846;44.788;20.486;2023-11-19T13:30:57;231.20;2022.40
54946;DHT22;40846;44.788;20.486;2023-11-19T13:33:23;230.90;2022.40
54946;DHT22;40846;44.788;20.486;2023-11-19T13:35:49;231.00;2048.00
54946;DHT22;40846;44.788;20.486;2023-11-19T13:38:15;231.10;2022.40
54946;DHT22;40846;44.788;20.486;2023-11-19T13:40:42;231.20;2022.40
54946;DHT22;40846;44.788;20.486;2023-11-19T13:43:08;231.20;2022.40
54946;DHT22;40846;44.788;20.486;2023-11-19T13:45:34;231.30;2022.40
54946;DHT22;40846;44.788;20.486;2023-11-19T13:48:00;231.10;1996.80
54946;DHT22;40846;44.788;20.486;2023-11-19T13:50:25;231.00;2022.40
54946;DHT22;40846;44.788;20.486;2023-11-19T13:52:51;231.10;2022.40
54946;DHT22;40846;44.788;20.486;2023-11-19T13:55:17;231.20;2022.40
54946;DHT22;40846;44.788;20.486;2023-11-19T13:57:43;256.10;2252.80
54946;DHT22;40846;44.788;20.486;2023-11-19T14:00:13;231.30;2252.80
54946;DHT22;40846;44.788;20.486;2023-11-19T14:02:39;231.20;1996.80
54946;DHT22;40846;44.788;20.486;2023-11-19T14:05:06;231.20;2022.40
54946;DHT22;40846;44.788;20.486;2023-11-19T14:07:32;231.20;1996.80
54946;DHT22;40846;44.788;20.486;2023-11-19T14:09:58;230.90;2048.00
54946;DHT22;40846;44.788;20.486;2023-11-19T14:12:24;231.00;2048.00
54946;DHT22;40846;44.788;20.486;2023-11-19T14:14:49;231.30;2048.00
54946;DHT22;40846;44.788;20.486;2023-11-19T14:17:15;231.30;2252.80
54946;DHT22;40846;44.788;20.486;2023-11-19T14:19:42;256.00;2252.80
54946;DHT22;40846;44.788;20.486;2023-11-19T14:22:08;231.30;2048.00
54946;DHT22;40846;44.788;20.486;2023-11-19T14:24:37;231.30;2073.60
54946;DHT22;40846;44.788;20.486;2023-11-19T14:27:03;231.30;2048.00
54946;DHT22;40846;44.788;20.486;2023-11-19T14:29:29;256.10;2022.40
54946;DHT22;40846;44.788;20.486;2023-11-19T14:31:56;231.20;2022.40
54946;DHT22;40846;44.788;20.486;2023-11-19T14:34:22;256.00;2252.80
54946;DHT22;40846;44.788;20.486;2023-11-19T14:36:48;231.20;2022.40
54946;DHT22;40846;44.788;20.486;2023-11-19T14:39:14;231.20;2048.00
54946;DHT22;40846;44.788;20.486;2023-11-19T14:41:40;231.10;2022.40
54946;DHT22;40846;44.788;20.486;2023-11-19T14:44:07;230.90;2048.00
54946;DHT22;40846;44.788;20.486;2023-11-19T14:46:35;230.90;2073.60
54946;DHT22;40846;44.788;20.486;2023-11-19T14:49:01;230.90;2073.60
54946;DHT22;40846;44.788;20.486;2023-11-19T14:51:27;230.90;2073.60
54946;DHT22;40846;44.788;20.486;2023-11-19T14:53:52;230.90;2073.60
54946;DHT22;40846;44.788;20.486;2023-11-19T14:56:18;230.90;2073.60
54946;DHT22;40846;44.788;20.486;2023-11-19T15:01:14;231.10;2099.20
54946;DHT22;40846;44.788;20.486;2023-11-19T15:03:40;230.80;2150.40
54946;DHT22;40846;44.788;20.486;2023-11-19T15:06:07;230.50;2176.00
54946;DHT22;40846;44.788;20.486;2023-11-19T15:08:33;230.70;2201.60
54946;DHT22;40846;44.788;20.486;2023-11-19T15:13:27;230.40;2227.20
54946;DHT22;40846;44.788;20.486;2023-11-19T15:15:53;205.60;2227.20
54946;DHT22;40846;44.788;20.486;2023-11-19T15:18:20;205.60;2252.80
54946;DHT22;40846;44.788;20.486;2023-11-19T15:20:46;205.50;2252.80
54946;DHT22;40846;44.788;20.486;2023-11-19T15:23:15;205.50;2252.80
54946;DHT22;40846;44.788;20.486;2023-11-19T15:25:42;205.40;2252.80
54946;DHT22;40846;44.788;20.486;2023-11-19T15:28:08;205.40;2252.80
54946;DHT22;40846;44.788;20.486;2023-11-19T15:30:35;205.30;2252.80
54946;DHT22;40846;44.788;20.486;2023-11-19T15:33:01;205.30;2252.80
54946;DHT22;40846;44.788;20.486;2023-11-19T15:35:27;205.30;2252.80
54946;DHT22;40846;44.788;20.486;2023-11-19T15:42:47;230.40;2252.80
54946;DHT22;40846;44.788;20.486;2023-11-19T15:45:13;205.30;2252.80
54946;DHT22;40846;44.788;20.486;2023-11-19T15:47:39;205.40;2252.80
54946;DHT22;40846;44.788;20.486;2023-11-19T18:53:53;205.60;2252.80
54946;DHT22;40846;44.788;20.486;2023-11-19T18:56:20;205.30;2252.80
54946;DHT22;40846;44.788;20.486;2023-11-19T18:58:46;205.30;2252.80
54946;DHT22;40846;44.788;20.486;2023-11-19T19:01:12;205.30;2252.80
54946;DHT22;40846;44.788;20.486;2023-11-19T19:03:43;205.40;2252.80
54946;DHT22;40846;44.788;20.486;2023-11-19T19:06:09;205.40;2252.80
54946;DHT22;40846;44.788;20.486;2023-11-19T19:08:35;205.30;2252.80
54946;DHT22;40846;44.788;20.486;2023-11-19T19:11:01;205.30;2252.80
54946;DHT22;40846;44.788;20.486;2023-11-19T19:13:27;205.40;2252.80
54946;DHT22;40846;44.788;20.486;2023-11-19T19:15:53;205.50;2252.80
